Flight Track Log - Related Links

Times and Time Zones

All times are in EDT time to prevent confusion due to time zone crossing. See the UAL4380 flight status page for this flight to view local times or setup timezone preferences in your user account.

Time Position Orientation Groundspeed Altitude Reporting Facility
EDT Latitude Longitude Course Direction KTS MPH feet Rate Location/Type
Sat 06:27:27 AM 35.8686 -78.8114 15° North 179 206 1,100  Level Washington Center
Sat 06:28:21 AM 35.8342 -78.8508 223° Southwest 179 206 3,200 2,393 Climbing Washington Center
Sat 06:30:00 AM 36.1105 -78.6895 39° Northeast  Level FlightAware Approximate
Sat 06:30:20 AM 35.8986 -78.9356 313° West 248 285 8,000  Level Washington Center
Sat 06:31:00 AM 36.1911 -78.6586 19° North  Level FlightAware Approximate
Sat 06:31:19 AM 35.9711 -78.8847 30° Northeast 231 266 10,100  Level Washington Center
Sat 06:32:00 AM 36.2724 -78.6259 15° North  Level FlightAware Approximate
Sat 06:32:18 AM 36.0517 -78.8342 27° Northeast 272 313 11,200  Level Washington Center
Sat 06:33:20 AM 36.1389 -78.7736 29° Northeast 322 371 13,200 2,033 Climbing Washington Center
Sat 06:34:19 AM 36.2428 -78.7056 28° Northeast 361 415 15,300 1,881 Climbing Washington Center
Sat 06:35:18 AM 36.3256 -78.6522 27° Northeast 372 428 16,900 1,700 Climbing Washington Center
Sat 06:36:19 AM 36.4211 -78.5939 26° Northeast 372 428 18,700 1,659 Climbing Washington Center
Sat 06:37:21 AM 36.5242 -78.5567 16° North 372 428 20,300 1,750 Climbing Washington Center
Sat 06:38:19 AM 36.6253 -78.5192 17° North 378 435 22,200 1,815 Climbing Washington Center
Sat 06:39:20 AM 36.7242 -78.4786 18° North 373 429 23,900 1,770 Climbing Washington Center
Sat 06:40:21 AM 36.8261 -78.4072 29° Northeast 368 423 25,800 1,563 Climbing Washington Center
Sat 06:41:19 AM 36.9156 -78.3300 35° Northeast 374 430 27,000 605 Climbing Washington Center
Sat 06:42:20 AM 37.0114 -78.2475 34° Northeast 397 457 27,000  Level Washington Center
Sat 06:43:20 AM 37.1133 -78.1600 34° Northeast 424 488 27,000  Level Washington Center
Sat 06:44:19 AM 37.2153 -78.0694 35° Northeast 435 501 27,000  Level Washington Center
Sat 06:45:19 AM 37.3214 -77.9789 34° Northeast 447 514 27,000  Level Washington Center
Sat 06:46:21 AM 37.4297 -77.8828 35° Northeast 460 529 27,000  Level Washington Center
Sat 06:47:20 AM 37.5336 -77.7917 35° Northeast 460 529 27,000  Level Washington Center
Sat 06:48:21 AM 37.6397 -77.6978 35° Northeast 460 529 27,000  Level Washington Center
Sat 06:49:18 AM 37.7475 -77.6061 34° Northeast 460 529 27,000  Level Washington Center
Sat 06:50:19 AM 37.8533 -77.5117 35° Northeast 460 529 27,000  Level Washington Center
Sat 06:51:21 AM 37.9569 -77.4169 36° Northeast 460 529 27,000  Level Washington Center
Sat 06:52:19 AM 38.0606 -77.3297 34° Northeast 453 521 27,000  Level Washington Center
Sat 06:53:19 AM 38.1683 -77.2344 35° Northeast 458 527 27,000  Level Washington Center
Sat 06:54:21 AM 38.2758 -77.1336 36° Northeast 463 533 27,000  Level Washington Center
Sat 06:55:19 AM 38.3814 -77.0431 34° Northeast 463 533 27,000  Level Washington Center
Sat 06:56:20 AM 38.4889 -76.9444 36° Northeast 463 533 27,000  Level Washington Center
Sat 06:57:21 AM 38.5942 -76.8456 36° Northeast 463 533 27,000  Level Washington Center
Sat 06:58:19 AM 38.6994 -76.7489 36° Northeast 463 533 27,000  Level Washington Center
Sat 06:59:18 AM 38.8006 -76.6358 41° Northeast 463 533 27,000  Level Washington Center
Sat 07:00:19 AM 38.8972 -76.5225 42° Northeast 463 533 27,000  Level Washington Center
Sat 07:01:21 AM 38.9939 -76.4142 41° Northeast 463 533 27,000  Level Washington Center
Sat 07:02:20 AM 39.0883 -76.3003 43° Northeast 463 533 27,000  Level Washington Center
Sat 07:03:20 AM 39.1850 -76.1886 42° Northeast 463 533 27,000  Level Washington Center
Sat 07:04:19 AM 39.2769 -76.0850 41° Northeast 470 541 27,000  Level Washington Center
Sat 07:05:19 AM 39.3714 -75.9756 42° Northeast 464 534 27,000  Level Washington Center
Sat 07:06:19 AM 39.4633 -75.8631 43° Northeast 458 527 27,000 -590 Level Washington Center
Sat 07:07:21 AM 39.5592 -75.7503 42° Northeast 453 521 25,800 -1,800 Descending Washington Center
Sat 07:08:19 AM 39.6553 -75.6400 41° Northeast 453 521 23,400 -2,400 Descending Washington Center
Sat 07:09:21 AM 39.7447 -75.5294 44° Northeast 448 516 21,000 -2,400 Descending Washington Center
Sat 07:10:19 AM 39.8342 -75.4239 42° Northeast 443 510 18,600 -2,250 Descending Washington Center
Sat 07:11:21 AM 39.9175 -75.3236 43° Northeast 425 489 16,500 -2,269 Descending Washington Center
Sat 07:12:18 AM 40.0047 -75.2150 44° Northeast 408 470 14,100 -2,218 Descending Washington Center
Sat 07:13:20 AM 40.0772 -75.1253 43° Northeast 383 441 12,100 -1,362 Descending Washington Center
Sat 07:15:01 AM 40.1833 -75.0000 42° Northeast 293 337 10,400 -1,155 Descending New York TRACON
Sat 07:16:01 AM 40.2500 -74.9167 44° Northeast 289 333 9,000 -1,263 Descending New York TRACON
Sat 07:16:55 AM 40.2833 -74.8500 57° Northeast 288 331 8,000 -800 Descending New York TRACON
Sat 07:18:01 AM 40.3500 -74.7667 44° Northeast 285 328 7,400 -714 Descending New York TRACON
Sat 07:19:01 AM 40.4000 -74.7000 45° Northeast 285 328 6,500 -700 Descending New York TRACON
Sat 07:20:01 AM 40.4667 -74.6500 30° Northeast 263 303 6,000 -278 Descending New York TRACON
Sat 07:20:49 AM 40.5333 -74.6500 360° North 259 298 6,000  Level New York TRACON
Sat 07:21:49 AM 40.6000 -74.6167 21° North 262 302 6,000  Level New York TRACON
Sat 07:22:49 AM 40.6667 -74.6000 11° North 267 307 6,000 -150 Level New York TRACON
Sat 07:23:49 AM 40.7333 -74.5667 21° North 265 305 5,700 -500 Descending New York TRACON
Sat 07:24:49 AM 40.8000 -74.5167 30° Northeast 270 311 5,000 -350 Descending New York TRACON
Sat 07:25:49 AM 40.8667 -74.4833 21° North 236 272 5,000  Level New York TRACON
Sat 07:26:55 AM 40.9333 -74.4333 30° Northeast 236 272 5,000  Level New York TRACON
Sat 07:27:55 AM 40.9833 -74.4000 27° Northeast 236 272 5,000 -50 Level New York TRACON
Sat 07:28:55 AM 41.0167 -74.3167 62° Northeast 239 275 4,900 -500 Descending New York TRACON
Sat 07:29:55 AM 41.0333 -74.2500 72° East 216 249 4,000 -474 Descending New York TRACON
Sat 07:30:49 AM 41.0167 -74.1833 108° East 198 228 4,000 -250 Level New York TRACON
Sat 07:31:55 AM 40.9667 -74.1500 153° Southeast 187 215 3,500 -476 Descending New York TRACON
Sat 07:32:55 AM 40.9333 -74.1167 143° Southeast 179 206 3,000 -250 Descending New York TRACON
Sat 07:33:55 AM 40.8833 -74.0833 153° Southeast 179 206 3,000 -50 Level New York TRACON
Sat 07:34:55 AM 40.8333 -74.0667 166° South 183 211 2,900 -333 Descending New York TRACON
Sat 07:36:01 AM 40.7833 -74.0833 194° South 181 208 2,300 -619 Descending New York TRACON
Sat 07:37:01 AM 40.7500 -74.0833 180° South 155 178 1,600 -700 Descending New York TRACON

Login

Don't have an account? Register now (free) for customized features, flight alerts, and more!